sensor_id;sensor_type;location;lat;lon;timestamp;temperature;humidity
17178;DHT22;8704;52.006;4.374;2023-11-19T00:01:18;13.70;99.90
17178;DHT22;8704;52.006;4.374;2023-11-19T00:03:46;13.60;83.60
17178;DHT22;8704;52.006;4.374;2023-11-19T00:06:17;13.70;91.80
17178;DHT22;8704;52.006;4.374;2023-11-19T00:08:45;13.60;90.20
17178;DHT22;8704;52.006;4.374;2023-11-19T00:11:14;13.60;92.90
17178;DHT22;8704;52.006;4.374;2023-11-19T00:13:43;13.60;93.50
17178;DHT22;8704;52.006;4.374;2023-11-19T00:16:11;13.70;81.10
17178;DHT22;8704;52.006;4.374;2023-11-19T00:18:39;13.50;72.20
17178;DHT22;8704;52.006;4.374;2023-11-19T00:21:07;13.60;59.50
17178;DHT22;8704;52.006;4.374;2023-11-19T00:23:36;13.60;49.30
17178;DHT22;8704;52.006;4.374;2023-11-19T00:26:05;13.60;36.30
17178;DHT22;8704;52.006;4.374;2023-11-19T00:28:34;13.60;31.50
17178;DHT22;8704;52.006;4.374;2023-11-19T00:31:05;13.60;6.00
17178;DHT22;8704;52.006;4.374;2023-11-19T00:33:34;13.50;1.90
17178;DHT22;8704;52.006;4.374;2023-11-19T00:36:16;13.50;1.00
17178;DHT22;8704;52.006;4.374;2023-11-19T00:38:44;13.50;1.00
17178;DHT22;8704;52.006;4.374;2023-11-19T00:41:12;13.50;2.70
17178;DHT22;8704;52.006;4.374;2023-11-19T00:43:44;13.50;1.00
17178;DHT22;8704;52.006;4.374;2023-11-19T00:46:13;13.40;1.00
17178;DHT22;8704;52.006;4.374;2023-11-19T00:48:41;13.50;1.00
17178;DHT22;8704;52.006;4.374;2023-11-19T00:51:11;13.50;1.00
17178;DHT22;8704;52.006;4.374;2023-11-19T00:53:39;13.50;1.00
17178;DHT22;8704;52.006;4.374;2023-11-19T00:56:08;13.40;1.00
17178;DHT22;8704;52.006;4.374;2023-11-19T00:58:39;13.40;1.00
17178;DHT22;8704;52.006;4.374;2023-11-19T01:01:08;13.40;1.00
17178;DHT22;8704;52.006;4.374;2023-11-19T01:03:36;13.40;1.00
17178;DHT22;8704;52.006;4.374;2023-11-19T01:06:05;13.40;1.00
17178;DHT22;8704;52.006;4.374;2023-11-19T01:08:35;13.30;1.00
17178;DHT22;8704;52.006;4.374;2023-11-19T01:11:04;13.30;1.00
17178;DHT22;8704;52.006;4.374;2023-11-19T01:13:32;13.20;1.00
17178;DHT22;8704;52.006;4.374;2023-11-19T01:16:00;13.20;1.00
17178;DHT22;8704;52.006;4.374;2023-11-19T01:18:30;13.20;1.00
17178;DHT22;8704;52.006;4.374;2023-11-19T01:20:59;13.10;1.00
17178;DHT22;8704;52.006;4.374;2023-11-19T01:23:27;13.10;1.00
17178;DHT22;8704;52.006;4.374;2023-11-19T01:25:55;13.10;1.00
17178;DHT22;8704;52.006;4.374;2023-11-19T01:28:23;13.10;1.00
17178;DHT22;8704;52.006;4.374;2023-11-19T01:30:51;13.10;1.00
17178;DHT22;8704;52.006;4.374;2023-11-19T01:33:20;13.00;1.00
17178;DHT22;8704;52.006;4.374;2023-11-19T01:35:49;13.00;1.00
17178;DHT22;8704;52.006;4.374;2023-11-19T01:38:18;13.00;1.00
17178;DHT22;8704;52.006;4.374;2023-11-19T01:40:46;12.90;1.00
17178;DHT22;8704;52.006;4.374;2023-11-19T01:43:32;12.90;1.00
17178;DHT22;8704;52.006;4.374;2023-11-19T01:46:01;12.90;1.00
17178;DHT22;8704;52.006;4.374;2023-11-19T01:48:30;12.90;1.00
17178;DHT22;8704;52.006;4.374;2023-11-19T01:51:01;12.80;1.00
17178;DHT22;8704;52.006;4.374;2023-11-19T01:53:29;12.90;1.00
17178;DHT22;8704;52.006;4.374;2023-11-19T01:55:58;12.90;1.00
17178;DHT22;8704;52.006;4.374;2023-11-19T01:58:26;12.70;1.00
17178;DHT22;8704;52.006;4.374;2023-11-19T02:00:57;12.80;1.00
17178;DHT22;8704;52.006;4.374;2023-11-19T02:03:26;12.70;1.00
17178;DHT22;8704;52.006;4.374;2023-11-19T02:05:56;12.70;1.00
17178;DHT22;8704;52.006;4.374;2023-11-19T02:08:26;12.80;1.00
17178;DHT22;8704;52.006;4.374;2023-11-19T02:10:54;12.70;1.00
17178;DHT22;8704;52.006;4.374;2023-11-19T02:13:24;12.60;1.00
17178;DHT22;8704;52.006;4.374;2023-11-19T02:15:53;12.60;1.00
17178;DHT22;8704;52.006;4.374;2023-11-19T02:18:22;12.60;1.00
17178;DHT22;8704;52.006;4.374;2023-11-19T02:20:52;12.60;1.00
17178;DHT22;8704;52.006;4.374;2023-11-19T02:23:21;12.50;1.00
17178;DHT22;8704;52.006;4.374;2023-11-19T02:26:02;12.60;1.00
17178;DHT22;8704;52.006;4.374;2023-11-19T02:28:34;12.50;1.00
17178;DHT22;8704;52.006;4.374;2023-11-19T02:31:04;12.50;1.00
17178;DHT22;8704;52.006;4.374;2023-11-19T02:33:36;12.50;1.00
17178;DHT22;8704;52.006;4.374;2023-11-19T02:36:05;12.40;1.00
17178;DHT22;8704;52.006;4.374;2023-11-19T02:38:34;12.40;1.00
17178;DHT22;8704;52.006;4.374;2023-11-19T02:41:04;12.70;1.00
17178;DHT22;8704;52.006;4.374;2023-11-19T02:43:34;12.40;1.00
17178;DHT22;8704;52.006;4.374;2023-11-19T02:46:03;12.30;1.00
17178;DHT22;8704;52.006;4.374;2023-11-19T02:48:36;12.40;1.00
17178;DHT22;8704;52.006;4.374;2023-11-19T02:51:05;12.40;1.00
17178;DHT22;8704;52.006;4.374;2023-11-19T02:53:37;12.30;1.00
17178;DHT22;8704;52.006;4.374;2023-11-19T02:56:07;12.20;1.00
17178;DHT22;8704;52.006;4.374;2023-11-19T02:58:48;12.20;1.00
17178;DHT22;8704;52.006;4.374;2023-11-19T03:01:21;12.50;1.00
17178;DHT22;8704;52.006;4.374;2023-11-19T03:03:57;12.20;1.00
17178;DHT22;8704;52.006;4.374;2023-11-19T03:06:25;12.00;1.00
17178;DHT22;8704;52.006;4.374;2023-11-19T03:08:54;12.10;1.00
17178;DHT22;8704;52.006;4.374;2023-11-19T03:11:23;12.20;1.00
17178;DHT22;8704;52.006;4.374;2023-11-19T03:13:53;12.10;1.00
17178;DHT22;8704;52.006;4.374;2023-11-19T03:16:21;12.40;1.00
17178;DHT22;8704;52.006;4.374;2023-11-19T03:18:49;12.20;99.90
17178;DHT22;8704;52.006;4.374;2023-11-19T03:21:17;12.10;99.90
17178;DHT22;8704;52.006;4.374;2023-11-19T03:23:45;12.30;1.00
17178;DHT22;8704;52.006;4.374;2023-11-19T03:26:12;12.10;99.90
17178;DHT22;8704;52.006;4.374;2023-11-19T03:28:40;12.10;99.90
17178;DHT22;8704;52.006;4.374;2023-11-19T03:31:10;12.30;99.90
17178;DHT22;8704;52.006;4.374;2023-11-19T03:33:38;12.30;99.90
17178;DHT22;8704;52.006;4.374;2023-11-19T03:36:07;12.10;99.90
17178;DHT22;8704;52.006;4.374;2023-11-19T03:38:37;12.00;99.90
17178;DHT22;8704;52.006;4.374;2023-11-19T03:41:10;12.00;99.90
17178;DHT22;8704;52.006;4.374;2023-11-19T03:43:39;12.00;99.90
17178;DHT22;8704;52.006;4.374;2023-11-19T03:46:17;12.00;99.90
17178;DHT22;8704;52.006;4.374;2023-11-19T03:48:46;12.00;99.90
17178;DHT22;8704;52.006;4.374;2023-11-19T03:51:15;12.10;1.00
17178;DHT22;8704;52.006;4.374;2023-11-19T03:53:44;12.10;1.00
17178;DHT22;8704;52.006;4.374;2023-11-19T03:56:13;11.90;1.00
17178;DHT22;8704;52.006;4.374;2023-11-19T03:58:41;11.90;1.00
17178;DHT22;8704;52.006;4.374;2023-11-19T04:01:11;12.00;1.00
17178;DHT22;8704;52.006;4.374;2023-11-19T04:03:41;11.90;1.00
17178;DHT22;8704;52.006;4.374;2023-11-19T04:06:12;11.80;1.00
17178;DHT22;8704;52.006;4.374;2023-11-19T04:08:41;11.80;1.00
17178;DHT22;8704;52.006;4.374;2023-11-19T04:11:09;12.00;1.00
17178;DHT22;8704;52.006;4.374;2023-11-19T04:13:37;11.90;99.90
17178;DHT22;8704;52.006;4.374;2023-11-19T04:16:05;12.00;45.60
17178;DHT22;8704;52.006;4.374;2023-11-19T04:18:34;11.90;1.00
17178;DHT22;8704;52.006;4.374;2023-11-19T04:21:06;12.00;1.00
17178;DHT22;8704;52.006;4.374;2023-11-19T04:23:34;11.90;1.00
17178;DHT22;8704;52.006;4.374;2023-11-19T04:26:03;11.90;1.00
17178;DHT22;8704;52.006;4.374;2023-11-19T04:28:34;11.90;1.00
17178;DHT22;8704;52.006;4.374;2023-11-19T04:31:03;12.10;1.00
17178;DHT22;8704;52.006;4.374;2023-11-19T04:33:31;11.90;99.90
17178;DHT22;8704;52.006;4.374;2023-11-19T04:35:59;11.90;99.90
17178;DHT22;8704;52.006;4.374;2023-11-19T04:38:28;11.80;1.00
17178;DHT22;8704;52.006;4.374;2023-11-19T04:40:57;11.80;1.00
17178;DHT22;8704;52.006;4.374;2023-11-19T04:43:25;12.00;1.00
17178;DHT22;8704;52.006;4.374;2023-11-19T04:45:53;11.80;1.00
17178;DHT22;8704;52.006;4.374;2023-11-19T04:48:22;11.80;29.80
17178;DHT22;8704;52.006;4.374;2023-11-19T04:50:50;12.00;1.00
17178;DHT22;8704;52.006;4.374;2023-11-19T04:53:19;11.80;1.00
17178;DHT22;8704;52.006;4.374;2023-11-19T04:55:48;12.00;1.00
17178;DHT22;8704;52.006;4.374;2023-11-19T04:58:16;12.00;1.00
17178;DHT22;8704;52.006;4.374;2023-11-19T05:00:45;11.80;99.90
17178;DHT22;8704;52.006;4.374;2023-11-19T05:03:14;11.80;1.00
17178;DHT22;8704;52.006;4.374;2023-11-19T05:05:42;11.80;1.00
17178;DHT22;8704;52.006;4.374;2023-11-19T05:08:10;11.80;99.90
17178;DHT22;8704;52.006;4.374;2023-11-19T05:10:38;11.70;1.00
17178;DHT22;8704;52.006;4.374;2023-11-19T05:13:08;11.80;1.00
17178;DHT22;8704;52.006;4.374;2023-11-19T05:15:37;11.70;99.90
17178;DHT22;8704;52.006;4.374;2023-11-19T05:18:05;12.10;99.90
17178;DHT22;8704;52.006;4.374;2023-11-19T05:20:33;11.70;99.90
17178;DHT22;8704;52.006;4.374;2023-11-19T05:23:01;11.70;99.90
17178;DHT22;8704;52.006;4.374;2023-11-19T05:25:29;11.70;99.90
17178;DHT22;8704;52.006;4.374;2023-11-19T05:27:57;11.70;99.90
17178;DHT22;8704;52.006;4.374;2023-11-19T05:30:27;11.80;99.90
17178;DHT22;8704;52.006;4.374;2023-11-19T05:32:55;11.70;99.90
17178;DHT22;8704;52.006;4.374;2023-11-19T05:35:23;11.90;1.00
17178;DHT22;8704;52.006;4.374;2023-11-19T05:37:51;11.70;1.00
17178;DHT22;8704;52.006;4.374;2023-11-19T05:40:19;11.70;1.00
17178;DHT22;8704;52.006;4.374;2023-11-19T05:42:47;11.90;1.00
17178;DHT22;8704;52.006;4.374;2023-11-19T05:45:15;11.70;99.90
17178;DHT22;8704;52.006;4.374;2023-11-19T05:47:45;11.60;1.00
17178;DHT22;8704;52.006;4.374;2023-11-19T05:50:13;11.70;1.00
17178;DHT22;8704;52.006;4.374;2023-11-19T05:52:41;11.70;99.90
17178;DHT22;8704;52.006;4.374;2023-11-19T05:55:10;11.80;99.90
17178;DHT22;8704;52.006;4.374;2023-11-19T05:57:38;11.70;99.90
17178;DHT22;8704;52.006;4.374;2023-11-19T06:00:11;11.70;97.60
17178;DHT22;8704;52.006;4.374;2023-11-19T06:02:40;11.70;1.00
17178;DHT22;8704;52.006;4.374;2023-11-19T06:05:09;11.80;99.90
17178;DHT22;8704;52.006;4.374;2023-11-19T06:07:39;11.70;1.00
17178;DHT22;8704;52.006;4.374;2023-11-19T06:10:08;11.60;1.00
17178;DHT22;8704;52.006;4.374;2023-11-19T06:12:37;11.50;1.00
17178;DHT22;8704;52.006;4.374;2023-11-19T06:15:08;11.80;1.00
17178;DHT22;8704;52.006;4.374;2023-11-19T06:17:36;11.60;1.00
17178;DHT22;8704;52.006;4.374;2023-11-19T06:20:06;11.50;1.00
17178;DHT22;8704;52.006;4.374;2023-11-19T06:22:36;11.50;1.00
17178;DHT22;8704;52.006;4.374;2023-11-19T06:25:04;11.70;1.00
17178;DHT22;8704;52.006;4.374;2023-11-19T06:27:34;11.50;99.90
17178;DHT22;8704;52.006;4.374;2023-11-19T06:30:03;11.50;99.90
17178;DHT22;8704;52.006;4.374;2023-11-19T06:32:32;11.40;1.00
17178;DHT22;8704;52.006;4.374;2023-11-19T06:35:00;11.50;99.90
17178;DHT22;8704;52.006;4.374;2023-11-19T06:37:29;11.80;1.00
17178;DHT22;8704;52.006;4.374;2023-11-19T06:39:59;11.70;99.90
17178;DHT22;8704;52.006;4.374;2023-11-19T06:42:27;12.00;1.00
17178;DHT22;8704;52.006;4.374;2023-11-19T06:44:55;11.70;1.00
17178;DHT22;8704;52.006;4.374;2023-11-19T06:47:25;11.70;1.00
17178;DHT22;8704;52.006;4.374;2023-11-19T06:49:54;11.60;1.00
17178;DHT22;8704;52.006;4.374;2023-11-19T06:52:23;11.70;99.90
17178;DHT22;8704;52.006;4.374;2023-11-19T06:54:51;11.70;99.90
17178;DHT22;8704;52.006;4.374;2023-11-19T06:57:35;12.00;1.00
17178;DHT22;8704;52.006;4.374;2023-11-19T07:00:05;11.70;1.00
17178;DHT22;8704;52.006;4.374;2023-11-19T07:02:33;11.80;1.00
17178;DHT22;8704;52.006;4.374;2023-11-19T07:05:01;11.80;1.00
17178;DHT22;8704;52.006;4.374;2023-11-19T07:07:31;12.10;1.00
17178;DHT22;8704;52.006;4.374;2023-11-19T07:09:59;11.90;1.00
17178;DHT22;8704;52.006;4.374;2023-11-19T07:12:29;12.10;1.00
17178;DHT22;8704;52.006;4.374;2023-11-19T07:14:58;11.90;1.00
17178;DHT22;8704;52.006;4.374;2023-11-19T07:17:27;11.90;1.00
17178;DHT22;8704;52.006;4.374;2023-11-19T07:19:55;11.90;1.00
17178;DHT22;8704;52.006;4.374;2023-11-19T07:22:26;11.20;1.00
17178;DHT22;8704;52.006;4.374;2023-11-19T07:24:56;11.90;1.00
17178;DHT22;8704;52.006;4.374;2023-11-19T07:27:25;11.80;1.00
17178;DHT22;8704;52.006;4.374;2023-11-19T07:29:54;11.90;1.00
17178;DHT22;8704;52.006;4.374;2023-11-19T07:32:24;11.80;1.00
17178;DHT22;8704;52.006;4.374;2023-11-19T07:34:52;12.10;1.00
17178;DHT22;8704;52.006;4.374;2023-11-19T07:37:20;11.90;99.90
17178;DHT22;8704;52.006;4.374;2023-11-19T07:39:49;11.80;70.80
17178;DHT22;8704;52.006;4.374;2023-11-19T07:42:17;11.90;1.00
17178;DHT22;8704;52.006;4.374;2023-11-19T07:44:45;11.90;99.90
17178;DHT22;8704;52.006;4.374;2023-11-19T07:47:13;11.90;6.60
17178;DHT22;8704;52.006;4.374;2023-11-19T07:49:43;11.80;99.90
17178;DHT22;8704;52.006;4.374;2023-11-19T07:52:11;11.80;43.10
17178;DHT22;8704;52.006;4.374;2023-11-19T07:54:42;11.90;1.00
17178;DHT22;8704;52.006;4.374;2023-11-19T07:57:10;11.90;99.90
17178;DHT22;8704;52.006;4.374;2023-11-19T07:59:39;12.00;1.00
17178;DHT22;8704;52.006;4.374;2023-11-19T08:02:07;11.80;1.00
17178;DHT22;8704;52.006;4.374;2023-11-19T08:04:35;11.90;1.00
17178;DHT22;8704;52.006;4.374;2023-11-19T08:07:08;12.00;1.00
17178;DHT22;8704;52.006;4.374;2023-11-19T08:09:36;11.90;99.90
17178;DHT22;8704;52.006;4.374;2023-11-19T08:12:05;11.90;99.90
17178;DHT22;8704;52.006;4.374;2023-11-19T08:14:35;12.00;1.00
17178;DHT22;8704;52.006;4.374;2023-11-19T08:17:03;12.10;1.00
17178;DHT22;8704;52.006;4.374;2023-11-19T08:19:31;12.00;1.00
17178;DHT22;8704;52.006;4.374;2023-11-19T08:21:59;12.10;1.00
17178;DHT22;8704;52.006;4.374;2023-11-19T08:24:29;12.20;20.20
17178;DHT22;8704;52.006;4.374;2023-11-19T08:26:57;12.30;99.90
17178;DHT22;8704;52.006;4.374;2023-11-19T08:29:28;12.30;99.90
17178;DHT22;8704;52.006;4.374;2023-11-19T08:31:56;12.40;1.00
17178;DHT22;8704;52.006;4.374;2023-11-19T08:34:26;12.40;99.90
17178;DHT22;8704;52.006;4.374;2023-11-19T08:36:54;12.80;99.90
17178;DHT22;8704;52.006;4.374;2023-11-19T08:39:23;12.50;1.00
17178;DHT22;8704;52.006;4.374;2023-11-19T08:41:52;12.70;1.00
17178;DHT22;8704;52.006;4.374;2023-11-19T08:44:21;12.70;1.00
17178;DHT22;8704;52.006;4.374;2023-11-19T08:46:50;12.60;99.90
17178;DHT22;8704;52.006;4.374;2023-11-19T08:49:18;12.70;99.90
17178;DHT22;8704;52.006;4.374;2023-11-19T08:51:46;12.70;99.90
17178;DHT22;8704;52.006;4.374;2023-11-19T08:54:14;12.70;99.90
17178;DHT22;8704;52.006;4.374;2023-11-19T08:56:42;12.70;99.90
17178;DHT22;8704;52.006;4.374;2023-11-19T08:59:11;12.70;99.90
17178;DHT22;8704;52.006;4.374;2023-11-19T09:01:42;12.80;1.00
17178;DHT22;8704;52.006;4.374;2023-11-19T09:04:11;12.80;1.00
17178;DHT22;8704;52.006;4.374;2023-11-19T09:06:39;12.80;1.00
17178;DHT22;8704;52.006;4.374;2023-11-19T09:09:07;12.80;1.00
17178;DHT22;8704;52.006;4.374;2023-11-19T09:11:36;12.80;1.00
17178;DHT22;8704;52.006;4.374;2023-11-19T09:14:04;12.90;1.00
17178;DHT22;8704;52.006;4.374;2023-11-19T09:16:34;12.90;1.00
17178;DHT22;8704;52.006;4.374;2023-11-19T09:19:02;13.00;1.00
17178;DHT22;8704;52.006;4.374;2023-11-19T09:21:32;13.00;1.00
17178;DHT22;8704;52.006;4.374;2023-11-19T09:24:03;13.10;1.00
17178;DHT22;8704;52.006;4.374;2023-11-19T09:26:32;13.10;84.80
17178;DHT22;8704;52.006;4.374;2023-11-19T09:29:00;13.10;1.00
17178;DHT22;8704;52.006;4.374;2023-11-19T09:31:28;13.10;1.00
17178;DHT22;8704;52.006;4.374;2023-11-19T09:33:57;13.30;99.90
17178;DHT22;8704;52.006;4.374;2023-11-19T09:36:25;13.20;55.70
17178;DHT22;8704;52.006;4.374;2023-11-19T09:38:53;13.30;1.00
17178;DHT22;8704;52.006;4.374;2023-11-19T09:41:21;13.80;45.10
17178;DHT22;8704;52.006;4.374;2023-11-19T09:43:51;13.40;99.90
17178;DHT22;8704;52.006;4.374;2023-11-19T09:46:19;13.40;1.00
17178;DHT22;8704;52.006;4.374;2023-11-19T09:48:52;13.40;99.90
17178;DHT22;8704;52.006;4.374;2023-11-19T09:51:23;13.40;99.90
17178;DHT22;8704;52.006;4.374;2023-11-19T09:53:51;13.40;99.90
17178;DHT22;8704;52.006;4.374;2023-11-19T09:56:19;13.30;1.00
17178;DHT22;8704;52.006;4.374;2023-11-19T09:58:47;13.50;1.00
17178;DHT22;8704;52.006;4.374;2023-11-19T10:01:15;13.40;99.90
17178;DHT22;8704;52.006;4.374;2023-11-19T10:03:55;13.40;1.00
17178;DHT22;8704;52.006;4.374;2023-11-19T10:06:26;13.40;1.00
17178;DHT22;8704;52.006;4.374;2023-11-19T10:08:55;13.30;1.00
17178;DHT22;8704;52.006;4.374;2023-11-19T10:11:23;13.40;1.00
17178;DHT22;8704;52.006;4.374;2023-11-19T10:13:52;13.40;1.00
17178;DHT22;8704;52.006;4.374;2023-11-19T10:16:27;13.40;24.50
17178;DHT22;8704;52.006;4.374;2023-11-19T10:18:55;13.40;99.90
17178;DHT22;8704;52.006;4.374;2023-11-19T10:21:26;13.40;1.00
17178;DHT22;8704;52.006;4.374;2023-11-19T10:23:55;13.40;99.90
17178;DHT22;8704;52.006;4.374;2023-11-19T10:26:24;13.50;99.90
17178;DHT22;8704;52.006;4.374;2023-11-19T10:28:52;13.40;99.90
17178;DHT22;8704;52.006;4.374;2023-11-19T10:31:20;13.40;67.80
17178;DHT22;8704;52.006;4.374;2023-11-19T10:33:51;13.50;3.80
17178;DHT22;8704;52.006;4.374;2023-11-19T10:36:20;13.50;59.60
17178;DHT22;8704;52.006;4.374;2023-11-19T10:38:55;13.50;1.00
17178;DHT22;8704;52.006;4.374;2023-11-19T10:41:30;13.50;99.90
17178;DHT22;8704;52.006;4.374;2023-11-19T10:43:58;13.50;99.90
17178;DHT22;8704;52.006;4.374;2023-11-19T10:46:36;13.50;1.00
17178;DHT22;8704;52.006;4.374;2023-11-19T10:49:05;13.50;1.00
17178;DHT22;8704;52.006;4.374;2023-11-19T10:51:34;13.90;1.00
17178;DHT22;8704;52.006;4.374;2023-11-19T10:54:05;13.60;1.00
17178;DHT22;8704;52.006;4.374;2023-11-19T10:56:34;13.60;99.90
17178;DHT22;8704;52.006;4.374;2023-11-19T10:59:02;13.70;1.00
17178;DHT22;8704;52.006;4.374;2023-11-19T11:01:52;13.80;99.90
17178;DHT22;8704;52.006;4.374;2023-11-19T11:04:24;13.80;99.90
17178;DHT22;8704;52.006;4.374;2023-11-19T11:06:54;13.90;1.00
17178;DHT22;8704;52.006;4.374;2023-11-19T11:09:26;13.90;1.00
17178;DHT22;8704;52.006;4.374;2023-11-19T11:11:55;13.90;1.00
17178;DHT22;8704;52.006;4.374;2023-11-19T11:14:24;14.00;1.00
17178;DHT22;8704;52.006;4.374;2023-11-19T11:16:53;14.00;1.00
17178;DHT22;8704;52.006;4.374;2023-11-19T11:19:21;14.10;1.00
17178;DHT22;8704;52.006;4.374;2023-11-19T11:21:52;14.10;1.00
17178;DHT22;8704;52.006;4.374;2023-11-19T11:24:44;14.20;1.00
17178;DHT22;8704;52.006;4.374;2023-11-19T11:27:43;14.20;99.90
17178;DHT22;8704;52.006;4.374;2023-11-19T11:30:22;14.30;1.00
17178;DHT22;8704;52.006;4.374;2023-11-19T11:33:02;14.30;99.90
17178;DHT22;8704;52.006;4.374;2023-11-19T11:35:43;14.40;99.90
17178;DHT22;8704;52.006;4.374;2023-11-19T11:38:21;14.40;99.90
17178;DHT22;8704;52.006;4.374;2023-11-19T11:41:18;14.40;28.70
17178;DHT22;8704;52.006;4.374;2023-11-19T11:43:48;14.30;1.00
17178;DHT22;8704;52.006;4.374;2023-11-19T11:46:54;14.40;1.00
17178;DHT22;8704;52.006;4.374;2023-11-19T11:49:26;14.40;99.90
17178;DHT22;8704;52.006;4.374;2023-11-19T11:52:03;14.40;99.90
17178;DHT22;8704;52.006;4.374;2023-11-19T11:54:32;14.40;1.00
17178;DHT22;8704;52.006;4.374;2023-11-19T11:57:06;14.40;1.00
17178;DHT22;8704;52.006;4.374;2023-11-19T11:59:43;14.40;1.00
17178;DHT22;8704;52.006;4.374;2023-11-19T12:02:12;14.50;1.00
17178;DHT22;8704;52.006;4.374;2023-11-19T12:04:41;14.50;1.00
17178;DHT22;8704;52.006;4.374;2023-11-19T12:07:12;14.50;1.00
17178;DHT22;8704;52.006;4.374;2023-11-19T12:09:41;14.50;1.00
17178;DHT22;8704;52.006;4.374;2023-11-19T12:12:18;14.40;99.90
17178;DHT22;8704;52.006;4.374;2023-11-19T12:15:04;14.40;1.00
17178;DHT22;8704;52.006;4.374;2023-11-19T12:17:46;14.30;20.50
17178;DHT22;8704;52.006;4.374;2023-11-19T12:20:17;14.30;1.00
17178;DHT22;8704;52.006;4.374;2023-11-19T12:23:04;14.30;2.00
17178;DHT22;8704;52.006;4.374;2023-11-19T12:25:34;14.30;1.00
17178;DHT22;8704;52.006;4.374;2023-11-19T12:28:04;14.40;63.30
17178;DHT22;8704;52.006;4.374;2023-11-19T12:30:32;14.30;1.00
17178;DHT22;8704;52.006;4.374;2023-11-19T12:33:07;14.30;1.00
17178;DHT22;8704;52.006;4.374;2023-11-19T12:35:39;14.30;1.00
17178;DHT22;8704;52.006;4.374;2023-11-19T12:38:07;14.30;99.90
17178;DHT22;8704;52.006;4.374;2023-11-19T12:40:35;14.20;99.90
17178;DHT22;8704;52.006;4.374;2023-11-19T12:43:04;14.20;99.90
17178;DHT22;8704;52.006;4.374;2023-11-19T12:45:35;14.20;99.90
17178;DHT22;8704;52.006;4.374;2023-11-19T12:48:05;14.20;99.90
17178;DHT22;8704;52.006;4.374;2023-11-19T12:50:51;14.30;99.90
17178;DHT22;8704;52.006;4.374;2023-11-19T12:53:20;14.30;99.90
17178;DHT22;8704;52.006;4.374;2023-11-19T12:55:48;14.20;99.90
17178;DHT22;8704;52.006;4.374;2023-11-19T12:58:30;14.20;1.00
17178;DHT22;8704;52.006;4.374;2023-11-19T13:01:02;14.30;99.90
17178;DHT22;8704;52.006;4.374;2023-11-19T13:03:32;14.20;99.90
17178;DHT22;8704;52.006;4.374;2023-11-19T13:06:02;14.20;99.90
17178;DHT22;8704;52.006;4.374;2023-11-19T13:08:36;14.20;99.90
17178;DHT22;8704;52.006;4.374;2023-11-19T13:11:06;14.20;99.90
17178;DHT22;8704;52.006;4.374;2023-11-19T13:13:57;14.10;99.90
17178;DHT22;8704;52.006;4.374;2023-11-19T13:16:27;14.10;1.00
17178;DHT22;8704;52.006;4.374;2023-11-19T13:18:56;14.10;1.00
17178;DHT22;8704;52.006;4.374;2023-11-19T13:21:24;14.10;1.00
17178;DHT22;8704;52.006;4.374;2023-11-19T13:23:53;14.10;99.90
17178;DHT22;8704;52.006;4.374;2023-11-19T13:26:21;14.00;99.90
17178;DHT22;8704;52.006;4.374;2023-11-19T13:28:49;14.00;99.90
17178;DHT22;8704;52.006;4.374;2023-11-19T13:31:19;14.00;99.90
17178;DHT22;8704;52.006;4.374;2023-11-19T13:33:48;13.80;99.90
17178;DHT22;8704;52.006;4.374;2023-11-19T13:36:16;13.90;1.00
17178;DHT22;8704;52.006;4.374;2023-11-19T13:38:44;13.90;99.90
17178;DHT22;8704;52.006;4.374;2023-11-19T13:41:12;13.80;1.00
17178;DHT22;8704;52.006;4.374;2023-11-19T13:43:40;13.90;99.90
17178;DHT22;8704;52.006;4.374;2023-11-19T13:46:08;13.80;1.00
17178;DHT22;8704;52.006;4.374;2023-11-19T13:48:39;13.80;1.00
17178;DHT22;8704;52.006;4.374;2023-11-19T13:51:07;13.80;1.00
17178;DHT22;8704;52.006;4.374;2023-11-19T13:53:36;13.70;1.00
17178;DHT22;8704;52.006;4.374;2023-11-19T13:56:08;13.70;1.00
17178;DHT22;8704;52.006;4.374;2023-11-19T13:58:36;13.60;1.00
17178;DHT22;8704;52.006;4.374;2023-11-19T14:01:05;13.70;1.00
17178;DHT22;8704;52.006;4.374;2023-11-19T14:03:33;13.60;1.00
17178;DHT22;8704;52.006;4.374;2023-11-19T14:06:03;13.70;1.00
17178;DHT22;8704;52.006;4.374;2023-11-19T14:08:32;13.60;1.00
17178;DHT22;8704;52.006;4.374;2023-11-19T14:11:00;13.60;47.00
17178;DHT22;8704;52.006;4.374;2023-11-19T14:13:28;13.60;1.00
17178;DHT22;8704;52.006;4.374;2023-11-19T14:15:57;13.60;1.00
17178;DHT22;8704;52.006;4.374;2023-11-19T14:18:25;13.70;83.00
17178;DHT22;8704;52.006;4.374;2023-11-19T14:20:53;13.80;39.50
17178;DHT22;8704;52.006;4.374;2023-11-19T14:23:22;13.80;99.90
17178;DHT22;8704;52.006;4.374;2023-11-19T14:25:51;13.70;99.90
17178;DHT22;8704;52.006;4.374;2023-11-19T14:28:19;13.60;99.90
17178;DHT22;8704;52.006;4.374;2023-11-19T14:30:47;13.60;1.00
17178;DHT22;8704;52.006;4.374;2023-11-19T14:33:20;13.70;1.00
17178;DHT22;8704;52.006;4.374;2023-11-19T14:35:48;13.60;1.00
17178;DHT22;8704;52.006;4.374;2023-11-19T14:38:16;13.70;1.00
17178;DHT22;8704;52.006;4.374;2023-11-19T14:40:46;13.80;99.90
17178;DHT22;8704;52.006;4.374;2023-11-19T14:43:14;13.70;99.90
17178;DHT22;8704;52.006;4.374;2023-11-19T14:45:43;13.70;99.90
17178;DHT22;8704;52.006;4.374;2023-11-19T14:48:16;13.60;99.90
17178;DHT22;8704;52.006;4.374;2023-11-19T14:50:45;13.60;99.90
17178;DHT22;8704;52.006;4.374;2023-11-19T14:53:13;13.60;1.00
17178;DHT22;8704;52.006;4.374;2023-11-19T14:55:42;13.60;1.00
17178;DHT22;8704;52.006;4.374;2023-11-19T14:58:11;14.20;1.00
17178;DHT22;8704;52.006;4.374;2023-11-19T15:00:43;13.60;99.90
17178;DHT22;8704;52.006;4.374;2023-11-19T15:03:11;13.50;99.90
17178;DHT22;8704;52.006;4.374;2023-11-19T15:05:40;13.50;1.00
17178;DHT22;8704;52.006;4.374;2023-11-19T15:08:08;13.50;99.90
17178;DHT22;8704;52.006;4.374;2023-11-19T15:10:36;13.50;1.00
17178;DHT22;8704;52.006;4.374;2023-11-19T15:13:04;13.40;1.00
17178;DHT22;8704;52.006;4.374;2023-11-19T15:15:34;13.50;1.00
17178;DHT22;8704;52.006;4.374;2023-11-19T15:18:03;13.40;99.90
17178;DHT22;8704;52.006;4.374;2023-11-19T15:20:31;13.30;99.90
17178;DHT22;8704;52.006;4.374;2023-11-19T15:22:59;13.30;1.00
17178;DHT22;8704;52.006;4.374;2023-11-19T15:25:27;13.30;1.00
17178;DHT22;8704;52.006;4.374;2023-11-19T15:27:55;13.30;1.00
17178;DHT22;8704;52.006;4.374;2023-11-19T15:30:23;13.30;1.00
17178;DHT22;8704;52.006;4.374;2023-11-19T15:32:54;13.20;1.00
17178;DHT22;8704;52.006;4.374;2023-11-19T15:35:22;13.20;1.00
17178;DHT22;8704;52.006;4.374;2023-11-19T15:37:50;13.10;1.00
17178;DHT22;8704;52.006;4.374;2023-11-19T15:40:19;13.20;12.90
17178;DHT22;8704;52.006;4.374;2023-11-19T15:42:47;13.10;99.90
17178;DHT22;8704;52.006;4.374;2023-11-19T15:45:15;13.10;1.00
17178;DHT22;8704;52.006;4.374;2023-11-19T15:47:44;13.10;1.00
17178;DHT22;8704;52.006;4.374;2023-11-19T15:50:13;13.20;1.00
17178;DHT22;8704;52.006;4.374;2023-11-19T15:52:41;13.00;99.90
17178;DHT22;8704;52.006;4.374;2023-11-19T15:55:11;13.00;99.90
17178;DHT22;8704;52.006;4.374;2023-11-19T15:57:39;12.90;1.00
17178;DHT22;8704;52.006;4.374;2023-11-19T16:00:08;12.90;99.90
17178;DHT22;8704;52.006;4.374;2023-11-19T16:02:38;12.80;99.90
17178;DHT22;8704;52.006;4.374;2023-11-19T16:05:07;12.80;99.90
17178;DHT22;8704;52.006;4.374;2023-11-19T16:07:41;12.80;1.00
17178;DHT22;8704;52.006;4.374;2023-11-19T16:10:09;12.70;1.00
17178;DHT22;8704;52.006;4.374;2023-11-19T16:12:40;12.70;99.90